sensor_id;sensor_type;location;lat;lon;timestamp;P1;durP1;ratioP1;P2;durP2;ratioP2
76852;SDS011;65825;52.232;10.566;2023-01-24T00:01:26;27.40;;;11.98;;
76852;SDS011;65825;52.232;10.566;2023-01-24T00:03:52;30.52;;;11.60;;
76852;SDS011;65825;52.232;10.566;2023-01-24T00:06:17;31.90;;;11.57;;
76852;SDS011;65825;52.232;10.566;2023-01-24T00:08:43;29.77;;;12.35;;
76852;SDS011;65825;52.232;10.566;2023-01-24T00:11:09;27.95;;;11.00;;
76852;SDS011;65825;52.232;10.566;2023-01-24T00:13:36;28.10;;;11.70;;
76852;SDS011;65825;52.232;10.566;2023-01-24T00:16:03;29.92;;;10.98;;
76852;SDS011;65825;52.232;10.566;2023-01-24T00:18:28;27.25;;;12.15;;
76852;SDS011;65825;52.232;10.566;2023-01-24T00:20:59;28.88;;;11.63;;
76852;SDS011;65825;52.232;10.566;2023-01-24T00:23:25;25.38;;;11.55;;
76852;SDS011;65825;52.232;10.566;2023-01-24T00:25:50;28.80;;;11.93;;
76852;SDS011;65825;52.232;10.566;2023-01-24T00:28:16;30.33;;;11.97;;
76852;SDS011;65825;52.232;10.566;2023-01-24T00:30:41;28.93;;;11.87;;
76852;SDS011;65825;52.232;10.566;2023-01-24T00:33:06;29.83;;;12.53;;
76852;SDS011;65825;52.232;10.566;2023-01-24T00:35:31;28.10;;;12.57;;
76852;SDS011;65825;52.232;10.566;2023-01-24T00:37:57;29.70;;;12.07;;
76852;SDS011;65825;52.232;10.566;2023-01-24T00:40:22;26.43;;;11.53;;
76852;SDS011;65825;52.232;10.566;2023-01-24T00:42:47;31.13;;;11.80;;
76852;SDS011;65825;52.232;10.566;2023-01-24T00:45:12;30.13;;;11.27;;
76852;SDS011;65825;52.232;10.566;2023-01-24T00:47:38;29.00;;;12.07;;
76852;SDS011;65825;52.232;10.566;2023-01-24T00:50:03;28.30;;;11.93;;
76852;SDS011;65825;52.232;10.566;2023-01-24T00:52:28;27.98;;;11.85;;
76852;SDS011;65825;52.232;10.566;2023-01-24T00:54:54;32.23;;;12.57;;
76852;SDS011;65825;52.232;10.566;2023-01-24T00:57:19;29.47;;;12.10;;
76852;SDS011;65825;52.232;10.566;2023-01-24T00:59:46;29.45;;;11.82;;
76852;SDS011;65825;52.232;10.566;2023-01-24T01:02:11;30.60;;;11.60;;
76852;SDS011;65825;52.232;10.566;2023-01-24T01:04:36;29.73;;;12.23;;
76852;SDS011;65825;52.232;10.566;2023-01-24T01:07:01;32.10;;;12.03;;
76852;SDS011;65825;52.232;10.566;2023-01-24T01:09:27;33.33;;;11.67;;
76852;SDS011;65825;52.232;10.566;2023-01-24T01:11:52;27.73;;;11.93;;
76852;SDS011;65825;52.232;10.566;2023-01-24T01:14:17;30.85;;;12.00;;
76852;SDS011;65825;52.232;10.566;2023-01-24T01:16:43;30.60;;;11.43;;
76852;SDS011;65825;52.232;10.566;2023-01-24T01:19:08;27.07;;;12.30;;
76852;SDS011;65825;52.232;10.566;2023-01-24T01:21:33;29.77;;;11.60;;
76852;SDS011;65825;52.232;10.566;2023-01-24T01:23:59;33.40;;;12.85;;
76852;SDS011;65825;52.232;10.566;2023-01-24T01:26:24;33.00;;;12.77;;
76852;SDS011;65825;52.232;10.566;2023-01-24T01:28:49;28.95;;;12.35;;
76852;SDS011;65825;52.232;10.566;2023-01-24T01:31:15;28.95;;;11.30;;
76852;SDS011;65825;52.232;10.566;2023-01-24T01:33:42;29.83;;;12.27;;
76852;SDS011;65825;52.232;10.566;2023-01-24T01:36:08;29.15;;;12.10;;
76852;SDS011;65825;52.232;10.566;2023-01-24T01:38:33;26.37;;;11.33;;
76852;SDS011;65825;52.232;10.566;2023-01-24T01:40:58;30.27;;;12.07;;
76852;SDS011;65825;52.232;10.566;2023-01-24T01:43:25;31.70;;;12.80;;
76852;SDS011;65825;52.232;10.566;2023-01-24T01:45:53;30.77;;;12.30;;
76852;SDS011;65825;52.232;10.566;2023-01-24T01:48:36;32.58;;;12.35;;
76852;SDS011;65825;52.232;10.566;2023-01-24T01:51:06;32.50;;;12.80;;
76852;SDS011;65825;52.232;10.566;2023-01-24T01:53:43;30.25;;;11.40;;
76852;SDS011;65825;52.232;10.566;2023-01-24T01:56:27;31.27;;;12.00;;
76852;SDS011;65825;52.232;10.566;2023-01-24T01:58:58;34.85;;;11.82;;
76852;SDS011;65825;52.232;10.566;2023-01-24T02:01:29;30.40;;;12.13;;
76852;SDS011;65825;52.232;10.566;2023-01-24T02:04:06;28.08;;;12.25;;
76852;SDS011;65825;52.232;10.566;2023-01-24T02:06:42;30.13;;;12.68;;
76852;SDS011;65825;52.232;10.566;2023-01-24T02:09:20;29.00;;;12.10;;
76852;SDS011;65825;52.232;10.566;2023-01-24T02:11:49;31.10;;;11.98;;
76852;SDS011;65825;52.232;10.566;2023-01-24T02:14:18;27.77;;;12.60;;
76852;SDS011;65825;52.232;10.566;2023-01-24T02:17:04;28.45;;;12.15;;
76852;SDS011;65825;52.232;10.566;2023-01-24T02:22:14;29.63;;;12.20;;
76852;SDS011;65825;52.232;10.566;2023-01-24T02:24:46;27.70;;;11.50;;
76852;SDS011;65825;52.232;10.566;2023-01-24T02:27:20;27.60;;;11.82;;
76852;SDS011;65825;52.232;10.566;2023-01-24T02:29:45;29.17;;;11.67;;
76852;SDS011;65825;52.232;10.566;2023-01-24T02:32:11;30.83;;;12.43;;
76852;SDS011;65825;52.232;10.566;2023-01-24T02:34:37;28.25;;;11.98;;
76852;SDS011;65825;52.232;10.566;2023-01-24T02:37:06;26.88;;;12.10;;
76852;SDS011;65825;52.232;10.566;2023-01-24T02:39:39;29.38;;;12.18;;
76852;SDS011;65825;52.232;10.566;2023-01-24T02:42:17;30.55;;;11.50;;
76852;SDS011;65825;52.232;10.566;2023-01-24T02:45:02;29.80;;;12.48;;
76852;SDS011;65825;52.232;10.566;2023-01-24T02:47:35;30.10;;;11.43;;
76852;SDS011;65825;52.232;10.566;2023-01-24T02:50:03;32.05;;;12.50;;
76852;SDS011;65825;52.232;10.566;2023-01-24T02:52:31;32.22;;;11.75;;
76852;SDS011;65825;52.232;10.566;2023-01-24T02:55:15;25.75;;;11.38;;
76852;SDS011;65825;52.232;10.566;2023-01-24T02:57:41;26.90;;;11.53;;
76852;SDS011;65825;52.232;10.566;2023-01-24T03:00:24;26.13;;;11.05;;
76852;SDS011;65825;52.232;10.566;2023-01-24T03:02:50;25.55;;;10.85;;
76852;SDS011;65825;52.232;10.566;2023-01-24T03:05:15;27.67;;;11.40;;
76852;SDS011;65825;52.232;10.566;2023-01-24T03:07:41;33.63;;;12.07;;
76852;SDS011;65825;52.232;10.566;2023-01-24T03:10:09;28.60;;;12.05;;
76852;SDS011;65825;52.232;10.566;2023-01-24T03:12:36;26.77;;;11.23;;
76852;SDS011;65825;52.232;10.566;2023-01-24T03:15:20;28.52;;;11.20;;
76852;SDS011;65825;52.232;10.566;2023-01-24T03:18:05;26.33;;;10.88;;
76852;SDS011;65825;52.232;10.566;2023-01-24T03:20:48;28.45;;;11.20;;
76852;SDS011;65825;52.232;10.566;2023-01-24T03:23:32;25.00;;;11.00;;
76852;SDS011;65825;52.232;10.566;2023-01-24T03:26:17;22.17;;;9.88;;
76852;SDS011;65825;52.232;10.566;2023-01-24T03:29:01;25.58;;;10.90;;
76852;SDS011;65825;52.232;10.566;2023-01-24T03:31:45;25.23;;;11.60;;
76852;SDS011;65825;52.232;10.566;2023-01-24T03:34:29;27.13;;;10.48;;
76852;SDS011;65825;52.232;10.566;2023-01-24T03:36:55;26.02;;;11.10;;
76852;SDS011;65825;52.232;10.566;2023-01-24T03:39:20;27.65;;;10.77;;
76852;SDS011;65825;52.232;10.566;2023-01-24T03:42:04;25.30;;;11.10;;
76852;SDS011;65825;52.232;10.566;2023-01-24T03:44:29;28.02;;;11.48;;
76852;SDS011;65825;52.232;10.566;2023-01-24T03:46:55;24.53;;;10.27;;
76852;SDS011;65825;52.232;10.566;2023-01-24T03:49:20;27.70;;;10.77;;
76852;SDS011;65825;52.232;10.566;2023-01-24T03:52:04;24.10;;;10.60;;
76852;SDS011;65825;52.232;10.566;2023-01-24T03:54:48;24.05;;;10.25;;
76852;SDS011;65825;52.232;10.566;2023-01-24T03:57:13;24.97;;;11.17;;
76852;SDS011;65825;52.232;10.566;2023-01-24T03:59:38;22.43;;;10.37;;
76852;SDS011;65825;52.232;10.566;2023-01-24T04:02:03;26.60;;;11.23;;
76852;SDS011;65825;52.232;10.566;2023-01-24T04:04:29;29.20;;;11.23;;
76852;SDS011;65825;52.232;10.566;2023-01-24T04:07:14;23.63;;;10.73;;
76852;SDS011;65825;52.232;10.566;2023-01-24T04:09:39;25.00;;;10.27;;
76852;SDS011;65825;52.232;10.566;2023-01-24T04:12:04;23.30;;;9.73;;
76852;SDS011;65825;52.232;10.566;2023-01-24T04:14:30;25.13;;;10.80;;
76852;SDS011;65825;52.232;10.566;2023-01-24T04:16:55;21.83;;;9.50;;
76852;SDS011;65825;52.232;10.566;2023-01-24T04:19:20;19.97;;;8.67;;
76852;SDS011;65825;52.232;10.566;2023-01-24T04:21:45;20.95;;;8.85;;
76852;SDS011;65825;52.232;10.566;2023-01-24T04:24:11;20.20;;;8.97;;
76852;SDS011;65825;52.232;10.566;2023-01-24T04:26:36;21.23;;;9.63;;
76852;SDS011;65825;52.232;10.566;2023-01-24T04:29:01;24.93;;;9.87;;
76852;SDS011;65825;52.232;10.566;2023-01-24T04:31:26;19.77;;;9.07;;
76852;SDS011;65825;52.232;10.566;2023-01-24T04:33:52;21.90;;;9.50;;
76852;SDS011;65825;52.232;10.566;2023-01-24T04:36:17;20.80;;;8.83;;
76852;SDS011;65825;52.232;10.566;2023-01-24T04:38:42;21.37;;;9.33;;
76852;SDS011;65825;52.232;10.566;2023-01-24T04:41:07;22.20;;;9.23;;
76852;SDS011;65825;52.232;10.566;2023-01-24T04:43:37;22.25;;;9.38;;
76852;SDS011;65825;52.232;10.566;2023-01-24T04:46:02;24.83;;;9.97;;
76852;SDS011;65825;52.232;10.566;2023-01-24T04:48:27;21.15;;;9.02;;
76852;SDS011;65825;52.232;10.566;2023-01-24T04:50:57;23.03;;;8.73;;
76852;SDS011;65825;52.232;10.566;2023-01-24T04:53:25;21.40;;;8.88;;
76852;SDS011;65825;52.232;10.566;2023-01-24T04:55:52;21.88;;;9.13;;
76852;SDS011;65825;52.232;10.566;2023-01-24T04:58:17;21.67;;;9.70;;
76852;SDS011;65825;52.232;10.566;2023-01-24T05:00:43;22.83;;;10.18;;
76852;SDS011;65825;52.232;10.566;2023-01-24T05:03:08;20.97;;;9.37;;
76852;SDS011;65825;52.232;10.566;2023-01-24T05:05:33;24.97;;;9.27;;
76852;SDS011;65825;52.232;10.566;2023-01-24T05:07:59;22.67;;;9.27;;
76852;SDS011;65825;52.232;10.566;2023-01-24T05:10:24;23.17;;;9.20;;
76852;SDS011;65825;52.232;10.566;2023-01-24T05:12:49;19.02;;;8.60;;
76852;SDS011;65825;52.232;10.566;2023-01-24T05:15:15;18.48;;;8.32;;
76852;SDS011;65825;52.232;10.566;2023-01-24T05:17:43;18.27;;;8.52;;
76852;SDS011;65825;52.232;10.566;2023-01-24T05:20:09;21.83;;;9.10;;
76852;SDS011;65825;52.232;10.566;2023-01-24T05:22:35;17.55;;;7.88;;
76852;SDS011;65825;52.232;10.566;2023-01-24T05:25:00;14.70;;;7.20;;
76852;SDS011;65825;52.232;10.566;2023-01-24T05:27:25;20.13;;;7.70;;
76852;SDS011;65825;52.232;10.566;2023-01-24T05:29:50;18.27;;;8.33;;
76852;SDS011;65825;52.232;10.566;2023-01-24T05:32:16;18.60;;;8.13;;
76852;SDS011;65825;52.232;10.566;2023-01-24T05:34:41;16.98;;;7.18;;
76852;SDS011;65825;52.232;10.566;2023-01-24T05:37:06;16.60;;;7.00;;
76852;SDS011;65825;52.232;10.566;2023-01-24T05:39:31;16.33;;;7.30;;
76852;SDS011;65825;52.232;10.566;2023-01-24T05:41:57;16.17;;;7.40;;
76852;SDS011;65825;52.232;10.566;2023-01-24T05:44:22;16.57;;;7.43;;
76852;SDS011;65825;52.232;10.566;2023-01-24T05:46:47;16.60;;;7.67;;
76852;SDS011;65825;52.232;10.566;2023-01-24T05:49:12;16.63;;;7.00;;
76852;SDS011;65825;52.232;10.566;2023-01-24T05:51:38;17.20;;;7.57;;
76852;SDS011;65825;52.232;10.566;2023-01-24T05:54:03;18.17;;;7.25;;
76852;SDS011;65825;52.232;10.566;2023-01-24T05:56:28;16.07;;;7.60;;
76852;SDS011;65825;52.232;10.566;2023-01-24T05:58:54;14.05;;;5.88;;
76852;SDS011;65825;52.232;10.566;2023-01-24T06:01:20;12.20;;;6.33;;
76852;SDS011;65825;52.232;10.566;2023-01-24T06:03:47;14.75;;;7.15;;
76852;SDS011;65825;52.232;10.566;2023-01-24T06:06:15;14.88;;;6.50;;
76852;SDS011;65825;52.232;10.566;2023-01-24T06:08:43;15.65;;;7.28;;
76852;SDS011;65825;52.232;10.566;2023-01-24T06:11:12;15.73;;;7.18;;
76852;SDS011;65825;52.232;10.566;2023-01-24T06:13:39;12.82;;;6.30;;
76852;SDS011;65825;52.232;10.566;2023-01-24T06:16:15;12.52;;;6.47;;
76852;SDS011;65825;52.232;10.566;2023-01-24T06:18:42;16.33;;;7.38;;
76852;SDS011;65825;52.232;10.566;2023-01-24T06:23:58;11.00;;;5.63;;
76852;SDS011;65825;52.232;10.566;2023-01-24T06:26:24;11.52;;;6.05;;
76852;SDS011;65825;52.232;10.566;2023-01-24T06:28:50;11.35;;;6.47;;
76852;SDS011;65825;52.232;10.566;2023-01-24T06:37:02;11.43;;;6.05;;
76852;SDS011;65825;52.232;10.566;2023-01-24T06:39:49;9.00;;;4.35;;
76852;SDS011;65825;52.232;10.566;2023-01-24T06:42:19;6.70;;;3.85;;
76852;SDS011;65825;52.232;10.566;2023-01-24T06:44:46;7.65;;;4.10;;
76852;SDS011;65825;52.232;10.566;2023-01-24T06:47:12;11.20;;;5.82;;
76852;SDS011;65825;52.232;10.566;2023-01-24T06:49:38;9.77;;;5.45;;
76852;SDS011;65825;52.232;10.566;2023-01-24T06:52:04;10.55;;;4.78;;
76852;SDS011;65825;52.232;10.566;2023-01-24T06:54:29;9.10;;;5.05;;
76852;SDS011;65825;52.232;10.566;2023-01-24T06:56:55;8.02;;;4.70;;
76852;SDS011;65825;52.232;10.566;2023-01-24T06:59:20;9.00;;;4.77;;
76852;SDS011;65825;52.232;10.566;2023-01-24T07:01:47;6.75;;;3.65;;
76852;SDS011;65825;52.232;10.566;2023-01-24T07:04:16;7.93;;;4.30;;
76852;SDS011;65825;52.232;10.566;2023-01-24T07:06:41;10.05;;;5.05;;
76852;SDS011;65825;52.232;10.566;2023-01-24T07:09:07;8.93;;;4.90;;
76852;SDS011;65825;52.232;10.566;2023-01-24T07:11:32;9.07;;;4.90;;
76852;SDS011;65825;52.232;10.566;2023-01-24T07:13:57;9.93;;;5.20;;
76852;SDS011;65825;52.232;10.566;2023-01-24T07:16:23;10.20;;;5.10;;
76852;SDS011;65825;52.232;10.566;2023-01-24T07:18:48;10.32;;;4.45;;
76852;SDS011;65825;52.232;10.566;2023-01-24T07:21:13;8.60;;;4.75;;
76852;SDS011;65825;52.232;10.566;2023-01-24T07:23:39;7.72;;;4.72;;
76852;SDS011;65825;52.232;10.566;2023-01-24T07:26:09;10.32;;;5.07;;
76852;SDS011;65825;52.232;10.566;2023-01-24T07:28:36;10.07;;;5.10;;
76852;SDS011;65825;52.232;10.566;2023-01-24T07:31:01;8.82;;;5.25;;
76852;SDS011;65825;52.232;10.566;2023-01-24T07:33:27;9.88;;;5.47;;
76852;SDS011;65825;52.232;10.566;2023-01-24T07:35:53;10.43;;;5.65;;
76852;SDS011;65825;52.232;10.566;2023-01-24T07:38:18;9.70;;;5.17;;
76852;SDS011;65825;52.232;10.566;2023-01-24T07:40:43;8.57;;;5.05;;
76852;SDS011;65825;52.232;10.566;2023-01-24T07:43:09;10.63;;;5.70;;
76852;SDS011;65825;52.232;10.566;2023-01-24T07:45:34;8.63;;;4.90;;
76852;SDS011;65825;52.232;10.566;2023-01-24T07:48:03;9.45;;;5.07;;
76852;SDS011;65825;52.232;10.566;2023-01-24T07:50:29;9.77;;;5.32;;
76852;SDS011;65825;52.232;10.566;2023-01-24T07:52:55;10.77;;;5.65;;
76852;SDS011;65825;52.232;10.566;2023-01-24T07:55:21;9.65;;;5.15;;
76852;SDS011;65825;52.232;10.566;2023-01-24T07:57:47;8.15;;;4.90;;
76852;SDS011;65825;52.232;10.566;2023-01-24T08:00:13;8.85;;;5.07;;
76852;SDS011;65825;52.232;10.566;2023-01-24T08:02:39;8.35;;;4.78;;
76852;SDS011;65825;52.232;10.566;2023-01-24T08:05:05;10.55;;;5.47;;
76852;SDS011;65825;52.232;10.566;2023-01-24T08:07:31;8.43;;;5.22;;
76852;SDS011;65825;52.232;10.566;2023-01-24T08:09:56;9.75;;;4.93;;
76852;SDS011;65825;52.232;10.566;2023-01-24T08:12:21;7.20;;;4.50;;
76852;SDS011;65825;52.232;10.566;2023-01-24T08:14:47;8.53;;;5.10;;
76852;SDS011;65825;52.232;10.566;2023-01-24T08:17:12;8.97;;;5.00;;
76852;SDS011;65825;52.232;10.566;2023-01-24T08:19:37;9.07;;;5.15;;
76852;SDS011;65825;52.232;10.566;2023-01-24T08:22:04;8.18;;;5.20;;
76852;SDS011;65825;52.232;10.566;2023-01-24T08:24:29;9.45;;;5.47;;
76852;SDS011;65825;52.232;10.566;2023-01-24T08:26:55;9.07;;;5.37;;
76852;SDS011;65825;52.232;10.566;2023-01-24T08:29:20;8.13;;;5.00;;
76852;SDS011;65825;52.232;10.566;2023-01-24T08:31:45;7.50;;;4.67;;
76852;SDS011;65825;52.232;10.566;2023-01-24T08:34:13;9.82;;;5.43;;
76852;SDS011;65825;52.232;10.566;2023-01-24T08:36:38;9.80;;;5.53;;
76852;SDS011;65825;52.232;10.566;2023-01-24T08:39:03;8.50;;;5.25;;
76852;SDS011;65825;52.232;10.566;2023-01-24T08:41:29;8.60;;;5.38;;
76852;SDS011;65825;52.232;10.566;2023-01-24T08:43:54;8.20;;;5.10;;
76852;SDS011;65825;52.232;10.566;2023-01-24T08:46:20;8.32;;;5.05;;
76852;SDS011;65825;52.232;10.566;2023-01-24T08:48:45;7.83;;;4.80;;
76852;SDS011;65825;52.232;10.566;2023-01-24T08:51:10;9.40;;;5.20;;
76852;SDS011;65825;52.232;10.566;2023-01-24T08:53:36;8.73;;;5.10;;
76852;SDS011;65825;52.232;10.566;2023-01-24T08:56:01;9.13;;;5.18;;
76852;SDS011;65825;52.232;10.566;2023-01-24T08:58:27;9.35;;;5.25;;
76852;SDS011;65825;52.232;10.566;2023-01-24T09:00:53;8.07;;;5.18;;
76852;SDS011;65825;52.232;10.566;2023-01-24T09:03:18;9.80;;;5.47;;
76852;SDS011;65825;52.232;10.566;2023-01-24T09:05:43;8.95;;;5.10;;
76852;SDS011;65825;52.232;10.566;2023-01-24T09:08:09;9.73;;;5.53;;
76852;SDS011;65825;52.232;10.566;2023-01-24T09:10:35;10.38;;;5.35;;
76852;SDS011;65825;52.232;10.566;2023-01-24T09:13:01;9.52;;;5.38;;
76852;SDS011;65825;52.232;10.566;2023-01-24T09:15:27;9.13;;;5.25;;
76852;SDS011;65825;52.232;10.566;2023-01-24T09:17:52;9.60;;;5.43;;
76852;SDS011;65825;52.232;10.566;2023-01-24T09:20:18;8.95;;;5.32;;
76852;SDS011;65825;52.232;10.566;2023-01-24T09:22:43;10.15;;;6.18;;
76852;SDS011;65825;52.232;10.566;2023-01-24T09:25:09;10.07;;;6.07;;
76852;SDS011;65825;52.232;10.566;2023-01-24T09:27:35;9.32;;;5.38;;
76852;SDS011;65825;52.232;10.566;2023-01-24T09:30:00;10.77;;;6.45;;
76852;SDS011;65825;52.232;10.566;2023-01-24T09:32:26;11.77;;;5.77;;
76852;SDS011;65825;52.232;10.566;2023-01-24T09:34:51;10.63;;;5.75;;
76852;SDS011;65825;52.232;10.566;2023-01-24T09:37:17;9.43;;;5.50;;
76852;SDS011;65825;52.232;10.566;2023-01-24T09:39:43;10.90;;;6.03;;
76852;SDS011;65825;52.232;10.566;2023-01-24T09:42:27;10.23;;;5.65;;
76852;SDS011;65825;52.232;10.566;2023-01-24T09:45:08;11.13;;;5.63;;
76852;SDS011;65825;52.232;10.566;2023-01-24T09:47:56;11.45;;;5.45;;
76852;SDS011;65825;52.232;10.566;2023-01-24T09:50:29;10.63;;;5.80;;
76852;SDS011;65825;52.232;10.566;2023-01-24T09:53:20;9.70;;;5.15;;
76852;SDS011;65825;52.232;10.566;2023-01-24T09:55:48;10.82;;;6.15;;
76852;SDS011;65825;52.232;10.566;2023-01-24T10:01:21;10.95;;;6.00;;
76852;SDS011;65825;52.232;10.566;2023-01-24T10:03:46;9.82;;;5.78;;
76852;SDS011;65825;52.232;10.566;2023-01-24T10:06:13;11.32;;;5.82;;
76852;SDS011;65825;52.232;10.566;2023-01-24T10:28:22;10.38;;;5.60;;
76852;SDS011;65825;52.232;10.566;2023-01-24T10:30:53;10.27;;;5.80;;
76852;SDS011;65825;52.232;10.566;2023-01-24T10:33:20;9.98;;;5.65;;
76852;SDS011;65825;52.232;10.566;2023-01-24T10:35:53;11.65;;;5.22;;
76852;SDS011;65825;52.232;10.566;2023-01-24T10:38:21;8.73;;;5.25;;
76852;SDS011;65825;52.232;10.566;2023-01-24T10:41:13;9.20;;;5.38;;
76852;SDS011;65825;52.232;10.566;2023-01-24T10:43:54;10.20;;;5.63;;
76852;SDS011;65825;52.232;10.566;2023-01-24T10:48:58;10.52;;;5.50;;
76852;SDS011;65825;52.232;10.566;2023-01-24T10:51:28;10.52;;;5.38;;
76852;SDS011;65825;52.232;10.566;2023-01-24T10:54:00;8.10;;;4.90;;
76852;SDS011;65825;52.232;10.566;2023-01-24T10:58:55;9.15;;;4.68;;
76852;SDS011;65825;52.232;10.566;2023-01-24T11:01:33;9.02;;;5.07;;
76852;SDS011;65825;52.232;10.566;2023-01-24T11:04:12;9.27;;;5.07;;
76852;SDS011;65825;52.232;10.566;2023-01-24T11:06:50;11.13;;;5.15;;
76852;SDS011;65825;52.232;10.566;2023-01-24T11:09:17;10.52;;;5.47;;
76852;SDS011;65825;52.232;10.566;2023-01-24T11:11:52;11.23;;;5.63;;
76852;SDS011;65825;52.232;10.566;2023-01-24T11:14:20;9.98;;;5.65;;
76852;SDS011;65825;52.232;10.566;2023-01-24T11:16:48;9.60;;;5.63;;
76852;SDS011;65825;52.232;10.566;2023-01-24T11:19:26;10.00;;;5.88;;
76852;SDS011;65825;52.232;10.566;2023-01-24T11:21:55;10.73;;;5.35;;
76852;SDS011;65825;52.232;10.566;2023-01-24T11:24:22;10.43;;;5.43;;
76852;SDS011;65825;52.232;10.566;2023-01-24T11:29:30;8.68;;;4.93;;
76852;SDS011;65825;52.232;10.566;2023-01-24T11:32:00;9.75;;;5.18;;
76852;SDS011;65825;52.232;10.566;2023-01-24T11:34:57;9.52;;;4.90;;
76852;SDS011;65825;52.232;10.566;2023-01-24T11:42:36;10.98;;;5.47;;
76852;SDS011;65825;52.232;10.566;2023-01-24T11:48:05;9.95;;;5.22;;
76852;SDS011;65825;52.232;10.566;2023-01-24T11:50:35;11.35;;;5.40;;
76852;SDS011;65825;52.232;10.566;2023-01-24T11:53:13;9.98;;;4.97;;
76852;SDS011;65825;52.232;10.566;2023-01-24T11:55:58;8.93;;;4.85;;
76852;SDS011;65825;52.232;10.566;2023-01-24T11:58:39;14.45;;;5.82;;
76852;SDS011;65825;52.232;10.566;2023-01-24T12:04:15;10.10;;;5.60;;
76852;SDS011;65825;52.232;10.566;2023-01-24T12:09:59;9.23;;;5.13;;
76852;SDS011;65825;52.232;10.566;2023-01-24T12:12:37;11.88;;;5.07;;
76852;SDS011;65825;52.232;10.566;2023-01-24T12:20:48;11.65;;;6.28;;
76852;SDS011;65825;52.232;10.566;2023-01-24T12:23:23;11.90;;;5.63;;
76852;SDS011;65825;52.232;10.566;2023-01-24T12:25:53;9.48;;;5.07;;
76852;SDS011;65825;52.232;10.566;2023-01-24T12:28:35;9.55;;;5.07;;
76852;SDS011;65825;52.232;10.566;2023-01-24T12:31:08;10.70;;;5.53;;
76852;SDS011;65825;52.232;10.566;2023-01-24T12:33:49;8.95;;;5.28;;
76852;SDS011;65825;52.232;10.566;2023-01-24T12:39:20;8.32;;;4.18;;
76852;SDS011;65825;52.232;10.566;2023-01-24T12:44:42;8.85;;;4.70;;
76852;SDS011;65825;52.232;10.566;2023-01-24T12:50:25;8.95;;;4.53;;
76852;SDS011;65825;52.232;10.566;2023-01-24T12:53:01;10.32;;;4.95;;
76852;SDS011;65825;52.232;10.566;2023-01-24T12:55:36;10.60;;;5.35;;
76852;SDS011;65825;52.232;10.566;2023-01-24T12:58:10;8.38;;;4.82;;
76852;SDS011;65825;52.232;10.566;2023-01-24T13:03:53;9.82;;;5.35;;
76852;SDS011;65825;52.232;10.566;2023-01-24T13:11:57;10.60;;;4.68;;
76852;SDS011;65825;52.232;10.566;2023-01-24T13:17:11;8.25;;;4.80;;
76852;SDS011;65825;52.232;10.566;2023-01-24T13:22:37;8.48;;;4.75;;
76852;SDS011;65825;52.232;10.566;2023-01-24T13:28:15;11.88;;;5.53;;
76852;SDS011;65825;52.232;10.566;2023-01-24T13:31:03;7.80;;;4.63;;
76852;SDS011;65825;52.232;10.566;2023-01-24T13:33:45;12.02;;;5.35;;
76852;SDS011;65825;52.232;10.566;2023-01-24T13:36:17;10.10;;;5.05;;
76852;SDS011;65825;52.232;10.566;2023-01-24T13:38:46;9.75;;;5.70;;
76852;SDS011;65825;52.232;10.566;2023-01-24T13:41:13;8.40;;;4.97;;
76852;SDS011;65825;52.232;10.566;2023-01-24T13:49:18;10.80;;;5.30;;
76852;SDS011;65825;52.232;10.566;2023-01-24T13:51:52;10.40;;;5.55;;
76852;SDS011;65825;52.232;10.566;2023-01-24T14:07:52;7.32;;;4.25;;
76852;SDS011;65825;52.232;10.566;2023-01-24T14:10:19;8.48;;;4.72;;
76852;SDS011;65825;52.232;10.566;2023-01-24T14:12:57;8.00;;;4.38;;
76852;SDS011;65825;52.232;10.566;2023-01-24T14:15:38;8.17;;;4.33;;
76852;SDS011;65825;52.232;10.566;2023-01-24T14:21:12;8.40;;;4.22;;
76852;SDS011;65825;52.232;10.566;2023-01-24T14:23:38;7.90;;;4.38;;
76852;SDS011;65825;52.232;10.566;2023-01-24T14:26:04;8.10;;;4.32;;
76852;SDS011;65825;52.232;10.566;2023-01-24T14:28:33;6.13;;;3.83;;
76852;SDS011;65825;52.232;10.566;2023-01-24T14:36:49;5.82;;;3.25;;
76852;SDS011;65825;52.232;10.566;2023-01-24T14:39:32;5.93;;;3.08;;
76852;SDS011;65825;52.232;10.566;2023-01-24T14:42:11;7.17;;;3.37;;
76852;SDS011;65825;52.232;10.566;2023-01-24T14:45:11;5.90;;;3.13;;
76852;SDS011;65825;52.232;10.566;2023-01-24T14:47:29;6.90;;;3.38;;
76852;SDS011;65825;52.232;10.566;2023-01-24T14:49:56;6.60;;;3.85;;
76852;SDS011;65825;52.232;10.566;2023-01-24T14:52:24;9.40;;;3.70;;
76852;SDS011;65825;52.232;10.566;2023-01-24T14:54:56;6.18;;;3.38;;
76852;SDS011;65825;52.232;10.566;2023-01-24T14:57:24;6.82;;;3.95;;
76852;SDS011;65825;52.232;10.566;2023-01-24T15:02:24;9.85;;;4.10;;
76852;SDS011;65825;52.232;10.566;2023-01-24T15:04:50;7.03;;;3.73;;
76852;SDS011;65825;52.232;10.566;2023-01-24T15:07:15;6.35;;;3.53;;
76852;SDS011;65825;52.232;10.566;2023-01-24T15:09:41;6.35;;;3.42;;
76852;SDS011;65825;52.232;10.566;2023-01-24T15:12:13;8.43;;;4.60;;
76852;SDS011;65825;52.232;10.566;2023-01-24T15:14:46;8.13;;;4.30;;
76852;SDS011;65825;52.232;10.566;2023-01-24T15:17:16;10.02;;;4.85;;
76852;SDS011;65825;52.232;10.566;2023-01-24T15:19:47;10.55;;;5.00;;
76852;SDS011;65825;52.232;10.566;2023-01-24T15:24:47;11.73;;;4.82;;
76852;SDS011;65825;52.232;10.566;2023-01-24T15:27:22;10.38;;;4.82;;
76852;SDS011;65825;52.232;10.566;2023-01-24T15:35:31;7.72;;;4.05;;
76852;SDS011;65825;52.232;10.566;2023-01-24T15:40:30;7.63;;;4.07;;
76852;SDS011;65825;52.232;10.566;2023-01-24T15:43:00;7.88;;;3.80;;
76852;SDS011;65825;52.232;10.566;2023-01-24T15:45:47;8.30;;;4.22;;
76852;SDS011;65825;52.232;10.566;2023-01-24T15:50:54;8.45;;;4.35;;
76852;SDS011;65825;52.232;10.566;2023-01-24T15:53:37;7.82;;;4.35;;
76852;SDS011;65825;52.232;10.566;2023-01-24T15:56:05;9.38;;;4.63;;
76852;SDS011;65825;52.232;10.566;2023-01-24T15:58:35;11.30;;;4.50;;
76852;SDS011;65825;52.232;10.566;2023-01-24T16:01:01;10.45;;;5.13;;
76852;SDS011;65825;52.232;10.566;2023-01-24T16:03:27;9.45;;;4.53;;
76852;SDS011;65825;52.232;10.566;2023-01-24T16:05:53;11.57;;;5.13;;
76852;SDS011;65825;52.232;10.566;2023-01-24T16:08:18;10.23;;;4.97;;
76852;SDS011;65825;52.232;10.566;2023-01-24T16:10:44;10.90;;;5.50;;
76852;SDS011;65825;52.232;10.566;2023-01-24T16:13:24;11.23;;;5.38;;
76852;SDS011;65825;52.232;10.566;2023-01-24T16:15:54;11.95;;;5.25;;
76852;SDS011;65825;52.232;10.566;2023-01-24T16:18:20;11.18;;;5.28;;
76852;SDS011;65825;52.232;10.566;2023-01-24T16:20:45;11.63;;;5.80;;
76852;SDS011;65825;52.232;10.566;2023-01-24T16:23:10;10.17;;;5.17;;
76852;SDS011;65825;52.232;10.566;2023-01-24T16:25:36;11.23;;;6.10;;
76852;SDS011;65825;52.232;10.566;2023-01-24T16:28:02;10.15;;;5.30;;
76852;SDS011;65825;52.232;10.566;2023-01-24T16:30:28;12.57;;;5.88;;
76852;SDS011;65825;52.232;10.566;2023-01-24T16:32:53;10.40;;;5.68;;
76852;SDS011;65825;52.232;10.566;2023-01-24T16:35:19;16.33;;;6.18;;
76852;SDS011;65825;52.232;10.566;2023-01-24T16:37:45;13.60;;;6.65;;
76852;SDS011;65825;52.232;10.566;2023-01-24T16:40:14;13.13;;;6.55;;
76852;SDS011;65825;52.232;10.566;2023-01-24T16:42:42;12.90;;;6.10;;
76852;SDS011;65825;52.232;10.566;2023-01-24T16:45:14;14.48;;;6.13;;
76852;SDS011;65825;52.232;10.566;2023-01-24T16:47:41;13.65;;;6.38;;